Terminal Aerodrome Forecast
Issued by NWS Jacksonville, FL

Home | Current Version | Previous Version | Text Only | Print | Product List | Glossary On
Versions: 1 2 3 4 5 6 7 8 9 10 11 12 13 14 15 16 17 18 19 20 21 22 23 24 25
000
FTUS42 KJAX 221307 AAA
TAFGNV
TAF AMD
KGNV 221307Z 2213/2312 16006KT P6SM BKN008
     FM221400 16007KT P6SM BKN015
     FM221500 16007KT P6SM SCT030 SCT200
     FM222000 17008KT P6SM VCTS SCT035CB BKN200
     FM230400 VRB03KT P6SM OVC250=

USA.gov is the U.S. government's official web portal to all federal, state and local government web resources and services.